General Aviation Weather

Text Reports

Enter one or more of the following location identifiers separated by a space:

Zip Code, Four-Character ICAO or Three-Character IATA airport codes.

METAR - Aviation Routine Weather Report
FMMI - Antananarivo,
Updated at 8:30 AM GMT on November 26, 2014 (11:30 AM EAT):
METAR FMMI 260830Z VRB05KT 9999 BKN020TCU 27/22 Q1017 NOSIG
TAF - Terminal Area Forecast
FMMI - Antananarivo,
Updated at 8:30 AM GMT on November 26, 2014 (11:30 AM EAT):
TAF FMMI 260500Z 2606/2712 08008KT 9999 SCT017 BKN020 PROB30 TEMPO
2606/2610 5000 SHRA BECMG 2610/2612 26010KT SCT020CB BKN023 PROB40
TEMPO 2611/2622 4000 TSRA BECMG 2620/2622 VRB04KT FEW017 BKN020 BECMG
2708/2710 28010KT=
Decoded:
ID: FMMI   Antananarivo/IV, MG
REPORT TIME: 26  5: 0
VALID TIME: 26 November AT 06:00Z to 27 November AT 12:00Z.
INITIAL WX
   WINDS: 80 AT 8
   CLOUDS: 17 SCT
   CLOUDS: 20 BKN
30% PROBABILITY OF WX 
TEMPORARY WX FROM 06Z TO 10Z
   VISIBILITY: 3.1 MILES
   WEATHER: SHRA
WX BECOMING FROM 10Z TO 12Z
   WINDS: 260 AT 10
   CLOUDS: 20 SCT WITH CB
   CLOUDS: 23 BKN
40% PROBABILITY OF WX 
TEMPORARY WX FROM 11Z TO 22Z
   VISIBILITY: 2.5 MILES
   WEATHER: TSRA
WX BECOMING FROM 20Z TO 22Z
   WIND: VARIABLE AT 4
   CLOUDS: 17 FEW
   CLOUDS: 20 BKN
WX BECOMING FROM 08Z TO 10Z
   WINDS: 280 AT 10
   COMMENTS: = 

INITIAL WX
   WEATHER: TAF_AMD_ENGM
   COMMENTS: 260644Z 2606/2706 02003KT 3000 BCFG BKN002 
TEMPORARY WX FROM 06Z TO 10Z
   VISIBILITY: 0.3 MILES
   WEATHER: FZFG
   VERTICAL VISIBILITY: 1
WX BECOMING FROM 09Z TO 11Z
   WEATHER: CAVOK
   COMMENTS: = 

PIREP - Pilot Weather Report
FMMI - Antananarivo,
Updated at 8:30 AM GMT on November 26, 2014 (11:30 AM EAT):
No PIREP is currently available for this location.
AIRMET - Airmens Meteorological Information
FMMI - Antananarivo,
Updated at 8:30 AM GMT on November 26, 2014 (11:30 AM EAT):
No AIRMET is currently available for this location.
SIGMET - Significant Meteorological Information
FMMI - Antananarivo,
Updated at 8:30 AM GMT on November 26, 2014 (11:30 AM EAT):
No SIGMET is currently available for this location.
NOTAM - Notice to Airmen
FMMI - Antananarivo,
Updated at 8:30 AM GMT on November 26, 2014 (11:30 AM EAT):
No NOTAM is currently available for this location.
Forecast Area
FMMI - Antananarivo,
Updated at 8:30 AM GMT on November 26, 2014 (11:30 AM EAT):
No NOTAM is currently available for this location.
Aviation Weather Maps